Riverton, Indiana
Current Conditions -  °F | °C
As of 4:15 AM on Friday 19 Dec 2014 (Local Time) from KRSV Reporting Station
Overcast Overcast  
Wind Chill: 23°   Ceiling: 1600
Heat Index: 28°   Visibility: 7mi
Dew Point: 26°   Wind: 5mph
Humidity: 92%   Direction: 350°N
Pressure: 30.3"   Gusts: NA
Location:  39.0138°N, 87.523°W
Report Text: KRSV 190915Z AUTO 35004KT 7SM OVC016 M02/M03 A3030 RMK AO2 T10231035
Loading
Personal Weather Stations






























Interactive Weather Map New forecast layout! Learn more

10-Day Weather Forecast

Advertisements
Track Severe Weather on mobile